sensor_id;sensor_type;location;lat;lon;timestamp;P1;durP1;ratioP1;P2;durP2;ratioP2
3726;SDS011;1879;45.876;12.300;2022-09-30T00:00:37;8.47;;;5.27;;
3726;SDS011;1879;45.876;12.300;2022-09-30T00:03:04;7.47;;;5.93;;
3726;SDS011;1879;45.876;12.300;2022-09-30T00:05:31;6.50;;;5.57;;
3726;SDS011;1879;45.876;12.300;2022-09-30T00:07:58;5.73;;;4.40;;
3726;SDS011;1879;45.876;12.300;2022-09-30T00:10:25;6.37;;;5.13;;
3726;SDS011;1879;45.876;12.300;2022-09-30T00:12:53;5.30;;;4.60;;
3726;SDS011;1879;45.876;12.300;2022-09-30T00:15:21;6.20;;;4.43;;
3726;SDS011;1879;45.876;12.300;2022-09-30T00:17:48;6.93;;;5.10;;
3726;SDS011;1879;45.876;12.300;2022-09-30T00:20:15;7.07;;;5.10;;
3726;SDS011;1879;45.876;12.300;2022-09-30T00:22:43;5.53;;;4.30;;
3726;SDS011;1879;45.876;12.300;2022-09-30T00:25:10;7.60;;;3.90;;
3726;SDS011;1879;45.876;12.300;2022-09-30T00:27:37;4.40;;;3.50;;
3726;SDS011;1879;45.876;12.300;2022-09-30T00:30:05;3.40;;;3.10;;
3726;SDS011;1879;45.876;12.300;2022-09-30T00:32:33;6.80;;;3.53;;
3726;SDS011;1879;45.876;12.300;2022-09-30T00:35:00;3.60;;;3.30;;
3726;SDS011;1879;45.876;12.300;2022-09-30T00:37:27;3.80;;;3.33;;
3726;SDS011;1879;45.876;12.300;2022-09-30T00:39:54;3.50;;;3.00;;
3726;SDS011;1879;45.876;12.300;2022-09-30T00:42:23;5.63;;;3.50;;
3726;SDS011;1879;45.876;12.300;2022-09-30T00:44:54;8.13;;;4.30;;
3726;SDS011;1879;45.876;12.300;2022-09-30T00:47:30;8.63;;;4.30;;
3726;SDS011;1879;45.876;12.300;2022-09-30T00:50:26;9.57;;;3.90;;
3726;SDS011;1879;45.876;12.300;2022-09-30T00:52:59;7.63;;;5.97;;
3726;SDS011;1879;45.876;12.300;2022-09-30T00:55:34;12.00;;;7.10;;
3726;SDS011;1879;45.876;12.300;2022-09-30T00:58:07;10.43;;;6.47;;
3726;SDS011;1879;45.876;12.300;2022-09-30T01:00:36;10.03;;;6.80;;
3726;SDS011;1879;45.876;12.300;2022-09-30T01:03:03;5.40;;;4.30;;
3726;SDS011;1879;45.876;12.300;2022-09-30T01:05:33;6.43;;;5.10;;
3726;SDS011;1879;45.876;12.300;2022-09-30T01:08:03;10.33;;;5.70;;
3726;SDS011;1879;45.876;12.300;2022-09-30T01:10:32;7.37;;;4.50;;
3726;SDS011;1879;45.876;12.300;2022-09-30T01:12:59;8.57;;;5.00;;
3726;SDS011;1879;45.876;12.300;2022-09-30T01:15:30;6.50;;;5.07;;
3726;SDS011;1879;45.876;12.300;2022-09-30T01:18:09;6.73;;;5.03;;
3726;SDS011;1879;45.876;12.300;2022-09-30T01:20:48;7.77;;;5.13;;
3726;SDS011;1879;45.876;12.300;2022-09-30T01:23:45;6.57;;;4.67;;
3726;SDS011;1879;45.876;12.300;2022-09-30T01:29:26;4.27;;;3.87;;
3726;SDS011;1879;45.876;12.300;2022-09-30T01:32:12;4.47;;;3.50;;
3726;SDS011;1879;45.876;12.300;2022-09-30T01:34:50;5.20;;;3.77;;
3726;SDS011;1879;45.876;12.300;2022-09-30T01:37:31;5.27;;;4.77;;
3726;SDS011;1879;45.876;12.300;2022-09-30T01:40:07;7.27;;;4.60;;
3726;SDS011;1879;45.876;12.300;2022-09-30T01:42:48;7.53;;;5.30;;
3726;SDS011;1879;45.876;12.300;2022-09-30T01:45:24;10.57;;;5.40;;
3726;SDS011;1879;45.876;12.300;2022-09-30T01:47:59;5.70;;;4.40;;
3726;SDS011;1879;45.876;12.300;2022-09-30T01:50:32;7.37;;;5.73;;
3726;SDS011;1879;45.876;12.300;2022-09-30T01:53:08;7.00;;;5.20;;
3726;SDS011;1879;45.876;12.300;2022-09-30T01:55:43;8.23;;;6.07;;
3726;SDS011;1879;45.876;12.300;2022-09-30T01:58:15;8.53;;;5.20;;
3726;SDS011;1879;45.876;12.300;2022-09-30T02:00:51;9.90;;;4.70;;
3726;SDS011;1879;45.876;12.300;2022-09-30T02:03:23;8.60;;;3.80;;
3726;SDS011;1879;45.876;12.300;2022-09-30T02:05:55;7.37;;;4.70;;
3726;SDS011;1879;45.876;12.300;2022-09-30T02:08:27;6.30;;;4.30;;
3726;SDS011;1879;45.876;12.300;2022-09-30T02:11:01;6.13;;;4.77;;
3726;SDS011;1879;45.876;12.300;2022-09-30T02:13:31;7.07;;;5.97;;
3726;SDS011;1879;45.876;12.300;2022-09-30T02:16:04;5.03;;;4.53;;
3726;SDS011;1879;45.876;12.300;2022-09-30T02:18:39;6.23;;;5.10;;
3726;SDS011;1879;45.876;12.300;2022-09-30T02:21:10;7.27;;;5.20;;
3726;SDS011;1879;45.876;12.300;2022-09-30T02:23:42;5.93;;;5.20;;
3726;SDS011;1879;45.876;12.300;2022-09-30T02:26:13;5.93;;;5.10;;
3726;SDS011;1879;45.876;12.300;2022-09-30T02:28:43;9.57;;;5.17;;
3726;SDS011;1879;45.876;12.300;2022-09-30T02:31:14;6.37;;;4.73;;
3726;SDS011;1879;45.876;12.300;2022-09-30T02:33:48;6.10;;;5.00;;
3726;SDS011;1879;45.876;12.300;2022-09-30T02:36:20;4.90;;;4.40;;
3726;SDS011;1879;45.876;12.300;2022-09-30T02:38:54;5.50;;;4.67;;
3726;SDS011;1879;45.876;12.300;2022-09-30T02:41:26;5.80;;;4.90;;
3726;SDS011;1879;45.876;12.300;2022-09-30T02:43:56;5.73;;;5.10;;
3726;SDS011;1879;45.876;12.300;2022-09-30T02:46:27;6.63;;;5.27;;
3726;SDS011;1879;45.876;12.300;2022-09-30T02:49:04;6.10;;;5.20;;
3726;SDS011;1879;45.876;12.300;2022-09-30T02:51:39;5.80;;;4.80;;
3726;SDS011;1879;45.876;12.300;2022-09-30T02:54:16;8.80;;;5.30;;
3726;SDS011;1879;45.876;12.300;2022-09-30T02:56:51;8.43;;;5.40;;
3726;SDS011;1879;45.876;12.300;2022-09-30T02:59:22;6.80;;;5.20;;
3726;SDS011;1879;45.876;12.300;2022-09-30T03:01:50;9.10;;;5.73;;
3726;SDS011;1879;45.876;12.300;2022-09-30T03:04:19;8.53;;;5.60;;
3726;SDS011;1879;45.876;12.300;2022-09-30T03:06:49;10.27;;;6.00;;
3726;SDS011;1879;45.876;12.300;2022-09-30T03:09:16;10.77;;;7.10;;
3726;SDS011;1879;45.876;12.300;2022-09-30T03:11:43;8.50;;;6.23;;
3726;SDS011;1879;45.876;12.300;2022-09-30T03:14:25;8.20;;;5.23;;
3726;SDS011;1879;45.876;12.300;2022-09-30T03:17:14;9.03;;;5.47;;
3726;SDS011;1879;45.876;12.300;2022-09-30T03:23:01;6.97;;;4.70;;
3726;SDS011;1879;45.876;12.300;2022-09-30T03:25:46;6.97;;;5.60;;
3726;SDS011;1879;45.876;12.300;2022-09-30T03:28:23;7.10;;;4.30;;
3726;SDS011;1879;45.876;12.300;2022-09-30T03:30:57;4.50;;;3.83;;
3726;SDS011;1879;45.876;12.300;2022-09-30T03:33:32;5.30;;;4.30;;
3726;SDS011;1879;45.876;12.300;2022-09-30T03:36:17;4.33;;;3.93;;
3726;SDS011;1879;45.876;12.300;2022-09-30T03:38:54;5.57;;;3.93;;
3726;SDS011;1879;45.876;12.300;2022-09-30T03:41:27;5.00;;;4.50;;
3726;SDS011;1879;45.876;12.300;2022-09-30T03:44:03;4.53;;;4.07;;
3726;SDS011;1879;45.876;12.300;2022-09-30T03:46:38;5.03;;;4.27;;
3726;SDS011;1879;45.876;12.300;2022-09-30T03:49:09;4.40;;;4.00;;
3726;SDS011;1879;45.876;12.300;2022-09-30T03:51:41;5.50;;;4.23;;
3726;SDS011;1879;45.876;12.300;2022-09-30T03:54:08;5.67;;;4.23;;
3726;SDS011;1879;45.876;12.300;2022-09-30T03:56:37;6.00;;;4.60;;
3726;SDS011;1879;45.876;12.300;2022-09-30T03:59:08;5.70;;;5.00;;
3726;SDS011;1879;45.876;12.300;2022-09-30T04:01:37;4.57;;;4.17;;
3726;SDS011;1879;45.876;12.300;2022-09-30T04:04:05;5.20;;;4.30;;
3726;SDS011;1879;45.876;12.300;2022-09-30T04:06:32;4.77;;;4.10;;
3726;SDS011;1879;45.876;12.300;2022-09-30T04:09:00;6.47;;;4.20;;
3726;SDS011;1879;45.876;12.300;2022-09-30T04:11:27;6.17;;;4.00;;
3726;SDS011;1879;45.876;12.300;2022-09-30T04:13:54;5.37;;;4.13;;
3726;SDS011;1879;45.876;12.300;2022-09-30T04:16:21;4.37;;;3.97;;
3726;SDS011;1879;45.876;12.300;2022-09-30T04:18:49;3.97;;;3.63;;
3726;SDS011;1879;45.876;12.300;2022-09-30T04:21:16;4.67;;;4.20;;
3726;SDS011;1879;45.876;12.300;2022-09-30T04:23:43;4.10;;;3.63;;
3726;SDS011;1879;45.876;12.300;2022-09-30T04:26:12;5.47;;;4.07;;
3726;SDS011;1879;45.876;12.300;2022-09-30T04:28:40;5.00;;;4.33;;
3726;SDS011;1879;45.876;12.300;2022-09-30T04:31:08;6.33;;;4.00;;
3726;SDS011;1879;45.876;12.300;2022-09-30T04:33:37;5.50;;;4.20;;
3726;SDS011;1879;45.876;12.300;2022-09-30T04:36:04;7.37;;;3.83;;
3726;SDS011;1879;45.876;12.300;2022-09-30T04:38:32;5.03;;;4.27;;
3726;SDS011;1879;45.876;12.300;2022-09-30T04:41:00;4.30;;;3.90;;
3726;SDS011;1879;45.876;12.300;2022-09-30T04:43:29;4.70;;;3.97;;
3726;SDS011;1879;45.876;12.300;2022-09-30T04:45:57;6.43;;;4.97;;
3726;SDS011;1879;45.876;12.300;2022-09-30T04:48:24;4.40;;;4.00;;
3726;SDS011;1879;45.876;12.300;2022-09-30T04:50:52;5.10;;;4.60;;
3726;SDS011;1879;45.876;12.300;2022-09-30T04:53:19;5.50;;;4.50;;
3726;SDS011;1879;45.876;12.300;2022-09-30T04:55:46;4.27;;;3.87;;
3726;SDS011;1879;45.876;12.300;2022-09-30T04:58:13;6.47;;;4.90;;
3726;SDS011;1879;45.876;12.300;2022-09-30T05:00:42;5.80;;;5.13;;
3726;SDS011;1879;45.876;12.300;2022-09-30T05:03:09;6.90;;;4.80;;
3726;SDS011;1879;45.876;12.300;2022-09-30T05:05:36;6.27;;;4.40;;
3726;SDS011;1879;45.876;12.300;2022-09-30T05:08:03;6.63;;;4.93;;
3726;SDS011;1879;45.876;12.300;2022-09-30T05:10:30;5.60;;;4.60;;
3726;SDS011;1879;45.876;12.300;2022-09-30T05:12:58;7.40;;;5.57;;
3726;SDS011;1879;45.876;12.300;2022-09-30T05:15:25;5.03;;;4.53;;
3726;SDS011;1879;45.876;12.300;2022-09-30T05:17:53;5.20;;;4.70;;
3726;SDS011;1879;45.876;12.300;2022-09-30T05:20:20;6.50;;;5.60;;
3726;SDS011;1879;45.876;12.300;2022-09-30T05:22:52;7.97;;;5.90;;
3726;SDS011;1879;45.876;12.300;2022-09-30T05:25:20;7.10;;;5.90;;
3726;SDS011;1879;45.876;12.300;2022-09-30T05:27:47;7.57;;;6.40;;
3726;SDS011;1879;45.876;12.300;2022-09-30T05:30:14;7.20;;;6.07;;
3726;SDS011;1879;45.876;12.300;2022-09-30T05:32:41;6.97;;;6.27;;
3726;SDS011;1879;45.876;12.300;2022-09-30T05:35:10;10.30;;;6.40;;
3726;SDS011;1879;45.876;12.300;2022-09-30T05:37:37;6.40;;;4.47;;
3726;SDS011;1879;45.876;12.300;2022-09-30T05:40:04;4.73;;;4.23;;
3726;SDS011;1879;45.876;12.300;2022-09-30T05:42:32;9.57;;;4.73;;
3726;SDS011;1879;45.876;12.300;2022-09-30T05:45:00;5.53;;;4.83;;
3726;SDS011;1879;45.876;12.300;2022-09-30T05:47:26;5.03;;;4.50;;
3726;SDS011;1879;45.876;12.300;2022-09-30T05:49:53;5.00;;;4.33;;
3726;SDS011;1879;45.876;12.300;2022-09-30T05:52:22;4.93;;;4.40;;
3726;SDS011;1879;45.876;12.300;2022-09-30T05:54:49;5.83;;;5.30;;
3726;SDS011;1879;45.876;12.300;2022-09-30T05:57:16;5.80;;;4.90;;
3726;SDS011;1879;45.876;12.300;2022-09-30T05:59:43;3.00;;;2.63;;
3726;SDS011;1879;45.876;12.300;2022-09-30T06:02:10;3.80;;;3.10;;
3726;SDS011;1879;45.876;12.300;2022-09-30T06:04:38;4.23;;;3.40;;
3726;SDS011;1879;45.876;12.300;2022-09-30T06:07:05;4.80;;;3.60;;
3726;SDS011;1879;45.876;12.300;2022-09-30T06:09:33;4.87;;;2.70;;
3726;SDS011;1879;45.876;12.300;2022-09-30T06:12:00;3.70;;;2.40;;
3726;SDS011;1879;45.876;12.300;2022-09-30T06:14:27;4.23;;;2.93;;
3726;SDS011;1879;45.876;12.300;2022-09-30T06:16:54;5.00;;;2.33;;
3726;SDS011;1879;45.876;12.300;2022-09-30T06:19:21;3.60;;;2.37;;
3726;SDS011;1879;45.876;12.300;2022-09-30T06:21:48;3.53;;;1.87;;
3726;SDS011;1879;45.876;12.300;2022-09-30T06:24:15;4.50;;;2.40;;
3726;SDS011;1879;45.876;12.300;2022-09-30T06:26:44;2.10;;;1.90;;
3726;SDS011;1879;45.876;12.300;2022-09-30T06:29:11;9.57;;;2.60;;
3726;SDS011;1879;45.876;12.300;2022-09-30T06:31:38;4.17;;;2.23;;
3726;SDS011;1879;45.876;12.300;2022-09-30T06:34:05;2.83;;;1.97;;
3726;SDS011;1879;45.876;12.300;2022-09-30T06:36:32;6.43;;;1.80;;
3726;SDS011;1879;45.876;12.300;2022-09-30T06:38:59;1.90;;;1.80;;
3726;SDS011;1879;45.876;12.300;2022-09-30T06:41:27;3.10;;;2.20;;
3726;SDS011;1879;45.876;12.300;2022-09-30T06:43:56;10.13;;;4.80;;
3726;SDS011;1879;45.876;12.300;2022-09-30T06:46:23;12.50;;;5.00;;
3726;SDS011;1879;45.876;12.300;2022-09-30T06:48:52;15.83;;;5.23;;
3726;SDS011;1879;45.876;12.300;2022-09-30T06:51:20;7.43;;;3.53;;
3726;SDS011;1879;45.876;12.300;2022-09-30T06:53:50;6.23;;;2.80;;
3726;SDS011;1879;45.876;12.300;2022-09-30T06:56:18;8.43;;;2.87;;
3726;SDS011;1879;45.876;12.300;2022-09-30T06:58:45;5.13;;;2.67;;
3726;SDS011;1879;45.876;12.300;2022-09-30T07:01:14;6.43;;;2.90;;
3726;SDS011;1879;45.876;12.300;2022-09-30T07:03:42;3.40;;;2.17;;
3726;SDS011;1879;45.876;12.300;2022-09-30T07:06:10;5.80;;;2.70;;
3726;SDS011;1879;45.876;12.300;2022-09-30T07:08:38;3.13;;;1.90;;
3726;SDS011;1879;45.876;12.300;2022-09-30T07:11:06;3.80;;;1.73;;
3726;SDS011;1879;45.876;12.300;2022-09-30T07:13:36;2.10;;;1.70;;
3726;SDS011;1879;45.876;12.300;2022-09-30T07:16:03;5.03;;;1.90;;
3726;SDS011;1879;45.876;12.300;2022-09-30T07:18:32;6.30;;;2.33;;
3726;SDS011;1879;45.876;12.300;2022-09-30T07:21:00;4.90;;;2.00;;
3726;SDS011;1879;45.876;12.300;2022-09-30T07:23:27;4.97;;;1.70;;
3726;SDS011;1879;45.876;12.300;2022-09-30T07:25:57;3.53;;;1.63;;
3726;SDS011;1879;45.876;12.300;2022-09-30T07:28:25;3.07;;;2.00;;
3726;SDS011;1879;45.876;12.300;2022-09-30T07:30:54;3.10;;;1.37;;
3726;SDS011;1879;45.876;12.300;2022-09-30T07:33:22;2.63;;;1.97;;
3726;SDS011;1879;45.876;12.300;2022-09-30T07:35:51;3.97;;;1.67;;
3726;SDS011;1879;45.876;12.300;2022-09-30T07:38:19;3.73;;;1.53;;
3726;SDS011;1879;45.876;12.300;2022-09-30T07:40:51;3.90;;;2.07;;
3726;SDS011;1879;45.876;12.300;2022-09-30T07:43:18;4.07;;;1.57;;
3726;SDS011;1879;45.876;12.300;2022-09-30T07:45:46;4.73;;;2.10;;
3726;SDS011;1879;45.876;12.300;2022-09-30T07:48:13;3.70;;;1.60;;
3726;SDS011;1879;45.876;12.300;2022-09-30T07:50:56;4.03;;;1.90;;
3726;SDS011;1879;45.876;12.300;2022-09-30T07:53:23;3.50;;;1.37;;
3726;SDS011;1879;45.876;12.300;2022-09-30T07:55:51;3.63;;;1.77;;
3726;SDS011;1879;45.876;12.300;2022-09-30T07:58:18;2.80;;;1.70;;
3726;SDS011;1879;45.876;12.300;2022-09-30T08:00:45;2.77;;;1.67;;
3726;SDS011;1879;45.876;12.300;2022-09-30T08:03:14;2.50;;;1.40;;
3726;SDS011;1879;45.876;12.300;2022-09-30T08:05:42;2.80;;;1.50;;
3726;SDS011;1879;45.876;12.300;2022-09-30T08:08:11;3.13;;;1.60;;
3726;SDS011;1879;45.876;12.300;2022-09-30T08:10:38;3.10;;;1.80;;
3726;SDS011;1879;45.876;12.300;2022-09-30T08:13:06;2.50;;;1.37;;
3726;SDS011;1879;45.876;12.300;2022-09-30T08:15:33;3.00;;;1.50;;
3726;SDS011;1879;45.876;12.300;2022-09-30T08:18:01;2.67;;;1.70;;
3726;SDS011;1879;45.876;12.300;2022-09-30T08:20:28;1.80;;;1.10;;
3726;SDS011;1879;45.876;12.300;2022-09-30T08:22:56;2.13;;;1.60;;
3726;SDS011;1879;45.876;12.300;2022-09-30T08:25:24;2.97;;;1.43;;
3726;SDS011;1879;45.876;12.300;2022-09-30T08:27:53;2.17;;;1.40;;
3726;SDS011;1879;45.876;12.300;2022-09-30T08:30:20;1.73;;;1.53;;
3726;SDS011;1879;45.876;12.300;2022-09-30T08:32:47;2.03;;;1.37;;
3726;SDS011;1879;45.876;12.300;2022-09-30T08:35:15;3.27;;;1.40;;
3726;SDS011;1879;45.876;12.300;2022-09-30T08:37:42;2.87;;;1.60;;
3726;SDS011;1879;45.876;12.300;2022-09-30T08:40:14;4.50;;;1.60;;
3726;SDS011;1879;45.876;12.300;2022-09-30T08:42:47;1.50;;;1.30;;
3726;SDS011;1879;45.876;12.300;2022-09-30T08:45:19;4.83;;;1.50;;
3726;SDS011;1879;45.876;12.300;2022-09-30T08:47:50;3.03;;;1.77;;
3726;SDS011;1879;45.876;12.300;2022-09-30T08:50:21;2.20;;;1.30;;
3726;SDS011;1879;45.876;12.300;2022-09-30T08:52:51;3.23;;;1.57;;
3726;SDS011;1879;45.876;12.300;2022-09-30T08:55:20;3.33;;;1.53;;
3726;SDS011;1879;45.876;12.300;2022-09-30T08:57:50;7.00;;;1.43;;
3726;SDS011;1879;45.876;12.300;2022-09-30T09:00:20;2.47;;;1.43;;
3726;SDS011;1879;45.876;12.300;2022-09-30T09:02:48;4.33;;;1.57;;
3726;SDS011;1879;45.876;12.300;2022-09-30T09:05:19;3.10;;;1.27;;
3726;SDS011;1879;45.876;12.300;2022-09-30T09:07:50;3.43;;;1.40;;
3726;SDS011;1879;45.876;12.300;2022-09-30T09:10:24;3.50;;;1.50;;
3726;SDS011;1879;45.876;12.300;2022-09-30T09:12:56;3.13;;;1.37;;
3726;SDS011;1879;45.876;12.300;2022-09-30T09:15:30;1.83;;;1.70;;
3726;SDS011;1879;45.876;12.300;2022-09-30T09:20:46;2.47;;;1.40;;
3726;SDS011;1879;45.876;12.300;2022-09-30T09:23:15;3.50;;;1.50;;
3726;SDS011;1879;45.876;12.300;2022-09-30T09:25:42;3.93;;;1.57;;
3726;SDS011;1879;45.876;12.300;2022-09-30T09:28:16;4.27;;;1.90;;
3726;SDS011;1879;45.876;12.300;2022-09-30T09:30:47;3.17;;;1.50;;
3726;SDS011;1879;45.876;12.300;2022-09-30T09:33:17;2.80;;;1.47;;
3726;SDS011;1879;45.876;12.300;2022-09-30T09:35:47;14.20;;;1.83;;
3726;SDS011;1879;45.876;12.300;2022-09-30T09:38:19;3.73;;;1.83;;
3726;SDS011;1879;45.876;12.300;2022-09-30T09:40:54;1.80;;;1.43;;
3726;SDS011;1879;45.876;12.300;2022-09-30T09:43:25;4.30;;;1.40;;
3726;SDS011;1879;45.876;12.300;2022-09-30T09:45:56;3.10;;;1.60;;
3726;SDS011;1879;45.876;12.300;2022-09-30T09:48:26;3.53;;;1.70;;
3726;SDS011;1879;45.876;12.300;2022-09-30T09:50:56;2.80;;;1.50;;
3726;SDS011;1879;45.876;12.300;2022-09-30T09:53:33;2.77;;;1.50;;
3726;SDS011;1879;45.876;12.300;2022-09-30T09:56:04;1.50;;;1.40;;
3726;SDS011;1879;45.876;12.300;2022-09-30T09:58:45;4.10;;;2.00;;
3726;SDS011;1879;45.876;12.300;2022-09-30T10:01:30;2.10;;;1.20;;
3726;SDS011;1879;45.876;12.300;2022-09-30T10:04:11;2.37;;;1.60;;
3726;SDS011;1879;45.876;12.300;2022-09-30T10:06:44;3.43;;;1.33;;
3726;SDS011;1879;45.876;12.300;2022-09-30T10:09:31;3.80;;;1.63;;
3726;SDS011;1879;45.876;12.300;2022-09-30T10:14:50;2.43;;;1.40;;
3726;SDS011;1879;45.876;12.300;2022-09-30T10:17:19;2.27;;;1.50;;
3726;SDS011;1879;45.876;12.300;2022-09-30T10:19:48;2.63;;;1.40;;
3726;SDS011;1879;45.876;12.300;2022-09-30T10:22:17;4.23;;;1.77;;
3726;SDS011;1879;45.876;12.300;2022-09-30T10:24:45;1.60;;;1.43;;
3726;SDS011;1879;45.876;12.300;2022-09-30T10:27:24;3.33;;;1.87;;
3726;SDS011;1879;45.876;12.300;2022-09-30T10:29:53;3.83;;;2.07;;
3726;SDS011;1879;45.876;12.300;2022-09-30T10:32:21;3.33;;;1.90;;
3726;SDS011;1879;45.876;12.300;2022-09-30T10:34:53;1.77;;;1.37;;
3726;SDS011;1879;45.876;12.300;2022-09-30T10:37:21;4.70;;;2.43;;
3726;SDS011;1879;45.876;12.300;2022-09-30T10:39:51;3.43;;;1.60;;
3726;SDS011;1879;45.876;12.300;2022-09-30T10:42:22;2.70;;;1.27;;
3726;SDS011;1879;45.876;12.300;2022-09-30T10:44:51;3.73;;;1.80;;
3726;SDS011;1879;45.876;12.300;2022-09-30T10:47:21;1.83;;;1.50;;
3726;SDS011;1879;45.876;12.300;2022-09-30T10:49:50;2.00;;;1.30;;
3726;SDS011;1879;45.876;12.300;2022-09-30T10:52:19;1.37;;;1.13;;
3726;SDS011;1879;45.876;12.300;2022-09-30T10:54:48;3.40;;;1.63;;
3726;SDS011;1879;45.876;12.300;2022-09-30T10:57:18;1.90;;;1.37;;
3726;SDS011;1879;45.876;12.300;2022-09-30T10:59:46;1.93;;;1.20;;
3726;SDS011;1879;45.876;12.300;2022-09-30T11:02:19;4.70;;;1.37;;
3726;SDS011;1879;45.876;12.300;2022-09-30T11:04:51;3.63;;;1.70;;
3726;SDS011;1879;45.876;12.300;2022-09-30T11:07:26;6.37;;;1.73;;
3726;SDS011;1879;45.876;12.300;2022-09-30T11:09:56;1.97;;;1.20;;
3726;SDS011;1879;45.876;12.300;2022-09-30T11:12:29;1.57;;;1.10;;
3726;SDS011;1879;45.876;12.300;2022-09-30T11:15:00;2.73;;;1.30;;
3726;SDS011;1879;45.876;12.300;2022-09-30T11:17:33;2.43;;;1.23;;
3726;SDS011;1879;45.876;12.300;2022-09-30T11:20:08;1.73;;;1.40;;
3726;SDS011;1879;45.876;12.300;2022-09-30T11:22:40;2.00;;;1.33;;
3726;SDS011;1879;45.876;12.300;2022-09-30T11:25:11;3.17;;;1.80;;
3726;SDS011;1879;45.876;12.300;2022-09-30T11:27:42;1.67;;;1.57;;
3726;SDS011;1879;45.876;12.300;2022-09-30T11:30:11;2.23;;;1.50;;
3726;SDS011;1879;45.876;12.300;2022-09-30T11:32:43;1.83;;;1.40;;
3726;SDS011;1879;45.876;12.300;2022-09-30T11:35:23;1.97;;;1.77;;
3726;SDS011;1879;45.876;12.300;2022-09-30T11:37:59;1.90;;;1.40;;
3726;SDS011;1879;45.876;12.300;2022-09-30T11:40:29;3.20;;;1.40;;
3726;SDS011;1879;45.876;12.300;2022-09-30T11:43:00;3.30;;;1.63;;
3726;SDS011;1879;45.876;12.300;2022-09-30T11:45:31;2.47;;;1.60;;
3726;SDS011;1879;45.876;12.300;2022-09-30T11:50:56;2.47;;;1.60;;
3726;SDS011;1879;45.876;12.300;2022-09-30T11:53:29;2.23;;;1.50;;
3726;SDS011;1879;45.876;12.300;2022-09-30T11:56:08;2.73;;;1.70;;
3726;SDS011;1879;45.876;12.300;2022-09-30T11:58:39;1.73;;;1.47;;
3726;SDS011;1879;45.876;12.300;2022-09-30T12:01:13;3.33;;;1.50;;
3726;SDS011;1879;45.876;12.300;2022-09-30T12:03:43;2.73;;;1.53;;
3726;SDS011;1879;45.876;12.300;2022-09-30T12:06:14;4.20;;;1.70;;
3726;SDS011;1879;45.876;12.300;2022-09-30T12:08:44;2.23;;;1.20;;
3726;SDS011;1879;45.876;12.300;2022-09-30T12:11:15;4.53;;;1.50;;
3726;SDS011;1879;45.876;12.300;2022-09-30T12:13:45;2.70;;;1.40;;
3726;SDS011;1879;45.876;12.300;2022-09-30T12:16:16;2.67;;;1.30;;
3726;SDS011;1879;45.876;12.300;2022-09-30T12:18:45;2.70;;;1.17;;
3726;SDS011;1879;45.876;12.300;2022-09-30T12:21:16;2.67;;;1.50;;
3726;SDS011;1879;45.876;12.300;2022-09-30T12:23:46;2.03;;;1.40;;
3726;SDS011;1879;45.876;12.300;2022-09-30T12:26:14;1.80;;;1.20;;
3726;SDS011;1879;45.876;12.300;2022-09-30T12:28:43;1.93;;;1.50;;
3726;SDS011;1879;45.876;12.300;2022-09-30T12:34:19;4.90;;;1.40;;
3726;SDS011;1879;45.876;12.300;2022-09-30T12:37:00;3.07;;;1.50;;
3726;SDS011;1879;45.876;12.300;2022-09-30T12:39:39;2.17;;;1.10;;
3726;SDS011;1879;45.876;12.300;2022-09-30T12:42:20;4.70;;;1.70;;
3726;SDS011;1879;45.876;12.300;2022-09-30T12:47:38;1.83;;;1.40;;
3726;SDS011;1879;45.876;12.300;2022-09-30T12:50:10;2.30;;;1.40;;
3726;SDS011;1879;45.876;12.300;2022-09-30T12:52:40;2.30;;;1.40;;
3726;SDS011;1879;45.876;12.300;2022-09-30T12:55:11;2.50;;;1.40;;
3726;SDS011;1879;45.876;12.300;2022-09-30T12:57:44;3.53;;;1.43;;
3726;SDS011;1879;45.876;12.300;2022-09-30T13:00:14;2.20;;;1.30;;
3726;SDS011;1879;45.876;12.300;2022-09-30T13:02:42;2.50;;;1.60;;
3726;SDS011;1879;45.876;12.300;2022-09-30T13:05:30;2.73;;;1.60;;
3726;SDS011;1879;45.876;12.300;2022-09-30T13:08:09;2.67;;;1.70;;
3726;SDS011;1879;45.876;12.300;2022-09-30T13:10:54;5.93;;;1.60;;
3726;SDS011;1879;45.876;12.300;2022-09-30T13:13:23;2.53;;;1.53;;
3726;SDS011;1879;45.876;12.300;2022-09-30T13:15:52;2.27;;;1.90;;
3726;SDS011;1879;45.876;12.300;2022-09-30T13:21:17;3.23;;;1.83;;
3726;SDS011;1879;45.876;12.300;2022-09-30T13:23:49;1.90;;;1.70;;
3726;SDS011;1879;45.876;12.300;2022-09-30T13:32:01;1.70;;;1.60;;
3726;SDS011;1879;45.876;12.300;2022-09-30T13:34:29;4.30;;;2.33;;
3726;SDS011;1879;45.876;12.300;2022-09-30T13:36:58;3.33;;;2.13;;
3726;SDS011;1879;45.876;12.300;2022-09-30T13:39:27;3.83;;;2.20;;
3726;SDS011;1879;45.876;12.300;2022-09-30T13:41:57;4.00;;;2.60;;
3726;SDS011;1879;45.876;12.300;2022-09-30T13:44:33;2.77;;;2.30;;
3726;SDS011;1879;45.876;12.300;2022-09-30T13:47:07;2.63;;;2.43;;
3726;SDS011;1879;45.876;12.300;2022-09-30T13:49:37;3.97;;;2.10;;
3726;SDS011;1879;45.876;12.300;2022-09-30T13:52:10;5.10;;;2.33;;
3726;SDS011;1879;45.876;12.300;2022-09-30T13:54:42;5.77;;;2.10;;
3726;SDS011;1879;45.876;12.300;2022-09-30T13:57:14;5.20;;;2.77;;
3726;SDS011;1879;45.876;12.300;2022-09-30T13:59:50;3.53;;;2.30;;
3726;SDS011;1879;45.876;12.300;2022-09-30T14:08:01;3.20;;;2.30;;
3726;SDS011;1879;45.876;12.300;2022-09-30T14:10:38;2.67;;;2.27;;
3726;SDS011;1879;45.876;12.300;2022-09-30T14:13:14;6.70;;;3.00;;
3726;SDS011;1879;45.876;12.300;2022-09-30T14:15:58;3.37;;;3.00;;
3726;SDS011;1879;45.876;12.300;2022-09-30T14:18:36;5.17;;;3.00;;
3726;SDS011;1879;45.876;12.300;2022-09-30T14:23:58;3.00;;;2.77;;
3726;SDS011;1879;45.876;12.300;2022-09-30T14:26:37;2.77;;;2.57;;
3726;SDS011;1879;45.876;12.300;2022-09-30T14:29:10;3.93;;;2.50;;
3726;SDS011;1879;45.876;12.300;2022-09-30T14:31:41;4.40;;;2.83;;
3726;SDS011;1879;45.876;12.300;2022-09-30T14:34:10;3.53;;;2.20;;
3726;SDS011;1879;45.876;12.300;2022-09-30T14:36:38;3.67;;;3.37;;
3726;SDS011;1879;45.876;12.300;2022-09-30T14:39:09;3.80;;;2.50;;
3726;SDS011;1879;45.876;12.300;2022-09-30T14:41:45;4.17;;;2.87;;
3726;SDS011;1879;45.876;12.300;2022-09-30T14:44:14;3.93;;;2.80;;
3726;SDS011;1879;45.876;12.300;2022-09-30T14:46:44;5.27;;;2.53;;
3726;SDS011;1879;45.876;12.300;2022-09-30T14:49:12;3.93;;;3.33;;
3726;SDS011;1879;45.876;12.300;2022-09-30T14:51:41;5.67;;;3.70;;
3726;SDS011;1879;45.876;12.300;2022-09-30T14:54:15;4.63;;;3.30;;
3726;SDS011;1879;45.876;12.300;2022-09-30T14:56:42;3.00;;;2.70;;
3726;SDS011;1879;45.876;12.300;2022-09-30T14:59:14;5.70;;;3.10;;
3726;SDS011;1879;45.876;12.300;2022-09-30T15:01:42;3.70;;;3.03;;
3726;SDS011;1879;45.876;12.300;2022-09-30T15:04:10;5.80;;;3.00;;
3726;SDS011;1879;45.876;12.300;2022-09-30T15:06:41;4.03;;;3.20;;
3726;SDS011;1879;45.876;12.300;2022-09-30T15:09:13;4.60;;;4.10;;
3726;SDS011;1879;45.876;12.300;2022-09-30T15:11:42;3.93;;;3.50;;
3726;SDS011;1879;45.876;12.300;2022-09-30T15:14:14;6.80;;;4.07;;
3726;SDS011;1879;45.876;12.300;2022-09-30T15:16:46;6.20;;;3.63;;
3726;SDS011;1879;45.876;12.300;2022-09-30T15:19:18;6.60;;;3.57;;
3726;SDS011;1879;45.876;12.300;2022-09-30T15:21:47;6.30;;;4.33;;
3726;SDS011;1879;45.876;12.300;2022-09-30T15:24:14;5.00;;;4.10;;
3726;SDS011;1879;45.876;12.300;2022-09-30T15:26:42;5.50;;;4.40;;
3726;SDS011;1879;45.876;12.300;2022-09-30T15:29:13;5.77;;;5.00;;
3726;SDS011;1879;45.876;12.300;2022-09-30T15:31:41;6.67;;;4.20;;
3726;SDS011;1879;45.876;12.300;2022-09-30T15:34:12;5.90;;;4.63;;
3726;SDS011;1879;45.876;12.300;2022-09-30T15:36:40;4.73;;;4.13;;
3726;SDS011;1879;45.876;12.300;2022-09-30T15:39:17;3.73;;;3.43;;
3726;SDS011;1879;45.876;12.300;2022-09-30T15:41:46;4.80;;;3.67;;
3726;SDS011;1879;45.876;12.300;2022-09-30T15:44:19;5.57;;;4.60;;
3726;SDS011;1879;45.876;12.300;2022-09-30T15:47:02;5.80;;;4.13;;
3726;SDS011;1879;45.876;12.300;2022-09-30T15:49:32;10.47;;;5.07;;
3726;SDS011;1879;45.876;12.300;2022-09-30T15:52:19;4.97;;;4.03;;
3726;SDS011;1879;45.876;12.300;2022-09-30T15:54:47;3.70;;;3.37;;
3726;SDS011;1879;45.876;12.300;2022-09-30T16:00:09;5.47;;;3.80;;
3726;SDS011;1879;45.876;12.300;2022-09-30T16:03:02;6.23;;;3.70;;